createdAt,value
2022-10-01T00:01:16.549Z,99.90
2022-10-01T00:03:44.162Z,99.90
2022-10-01T00:06:17.809Z,99.90
2022-10-01T00:08:49.376Z,99.90
2022-10-01T00:11:24.202Z,99.90
2022-10-01T00:13:52.561Z,99.30
2022-10-01T00:16:25.617Z,99.10
2022-10-01T00:18:54.153Z,98.90
2022-10-01T00:21:25.231Z,98.70
2022-10-01T00:24:04.965Z,98.50
2022-10-01T00:26:35.027Z,98.80
2022-10-01T00:29:04.943Z,99.10
2022-10-01T00:31:32.856Z,99.10
2022-10-01T00:34:02.784Z,98.90
2022-10-01T00:36:31.851Z,98.90
2022-10-01T00:39:02.222Z,98.30
2022-10-01T00:41:33.210Z,98.40
2022-10-01T00:44:29.438Z,98.30
2022-10-01T00:47:05.288Z,98.20
2022-10-01T00:49:35.468Z,98.10
2022-10-01T00:52:07.198Z,98.00
2022-10-01T00:54:34.146Z,97.50
2022-10-01T00:57:02.710Z,96.50
2022-10-01T00:59:31.301Z,96.50
2022-10-01T01:01:58.477Z,96.70
2022-10-01T01:04:25.809Z,96.20
2022-10-01T01:06:59.576Z,96.00
2022-10-01T01:09:41.163Z,95.90
2022-10-01T01:12:22.647Z,95.00
2022-10-01T01:15:28.298Z,94.90
2022-10-01T01:18:18.084Z,94.80
2022-10-01T01:21:06.206Z,95.00
2022-10-01T01:23:42.764Z,95.20
2022-10-01T01:26:30.357Z,95.40
2022-10-01T01:29:06.851Z,95.20
2022-10-01T01:31:40.516Z,95.00
2022-10-01T01:34:13.074Z,94.70
2022-10-01T01:36:43.868Z,94.30
2022-10-01T01:39:15.038Z,93.80
2022-10-01T01:41:50.220Z,93.60
2022-10-01T01:44:24.327Z,93.40
2022-10-01T01:46:56.533Z,93.10
2022-10-01T01:49:24.251Z,92.70
2022-10-01T01:52:16.026Z,92.50
2022-10-01T01:54:50.094Z,92.20
2022-10-01T01:57:19.376Z,91.80
2022-10-01T01:59:46.688Z,91.60
2022-10-01T02:02:35.420Z,91.70
2022-10-01T02:05:18.922Z,91.40
2022-10-01T02:07:46.050Z,91.30
2022-10-01T02:10:25.073Z,91.20
2022-10-01T02:13:24.275Z,91.40
2022-10-01T02:16:21.087Z,91.20
2022-10-01T02:19:12.025Z,91.10
2022-10-01T02:21:44.398Z,91.80
2022-10-01T02:24:19.402Z,92.20
2022-10-01T02:26:49.256Z,92.10
2022-10-01T02:29:20.540Z,92.40
2022-10-01T02:31:53.502Z,92.50
2022-10-01T02:34:25.745Z,92.70
2022-10-01T02:36:55.318Z,92.30
2022-10-01T02:39:25.488Z,92.30
2022-10-01T02:41:55.809Z,92.30
2022-10-01T02:44:30.345Z,92.30
2022-10-01T02:47:07.825Z,92.30
2022-10-01T02:49:37.527Z,92.60
2022-10-01T02:52:30.249Z,92.60
2022-10-01T02:55:09.383Z,92.50
2022-10-01T02:57:37.530Z,92.60
2022-10-01T03:00:10.725Z,92.70
2022-10-01T03:02:38.289Z,92.40
2022-10-01T03:05:06.017Z,92.60
2022-10-01T03:07:38.127Z,92.90
2022-10-01T03:10:05.975Z,93.30
2022-10-01T03:12:33.783Z,93.50
2022-10-01T03:15:01.223Z,93.20
2022-10-01T03:17:28.679Z,93.30
2022-10-01T03:19:56.200Z,93.10
2022-10-01T03:22:24.113Z,92.80
2022-10-01T03:24:53.414Z,92.90
2022-10-01T03:27:21.552Z,93.10
2022-10-01T03:29:49.064Z,93.20
2022-10-01T03:32:16.616Z,93.20
2022-10-01T03:34:44.474Z,92.90
2022-10-01T03:37:13.222Z,92.50
2022-10-01T03:39:40.403Z,92.50
2022-10-01T03:42:07.602Z,92.60
2022-10-01T03:44:34.827Z,92.60
2022-10-01T03:47:02.042Z,92.80
2022-10-01T03:49:29.396Z,92.60
2022-10-01T03:51:56.687Z,92.80
2022-10-01T03:54:23.878Z,93.40
2022-10-01T03:56:50.940Z,93.40
2022-10-01T03:59:18.364Z,93.40
2022-10-01T04:01:46.864Z,93.60
2022-10-01T04:04:15.064Z,93.30
2022-10-01T04:06:42.448Z,93.50
2022-10-01T04:09:10.031Z,93.50
2022-10-01T04:11:42.099Z,93.40
2022-10-01T04:14:09.336Z,93.40
2022-10-01T04:16:36.778Z,93.30
2022-10-01T04:19:05.313Z,93.10
2022-10-01T04:21:32.973Z,93.10
2022-10-01T04:24:01.206Z,92.80
2022-10-01T04:26:28.342Z,92.80
2022-10-01T04:28:55.488Z,92.90
2022-10-01T04:31:25.559Z,92.70
2022-10-01T04:33:57.525Z,92.40
2022-10-01T04:36:25.942Z,91.90
2022-10-01T04:38:58.032Z,92.20
2022-10-01T04:41:31.029Z,92.20
2022-10-01T04:44:00.291Z,92.30
2022-10-01T04:46:29.833Z,92.30
2022-10-01T04:48:57.357Z,92.20
2022-10-01T04:51:26.051Z,92.30
2022-10-01T04:53:53.550Z,92.40
2022-10-01T04:56:22.139Z,92.60
2022-10-01T04:58:51.117Z,92.90
2022-10-01T05:01:18.469Z,93.00
2022-10-01T05:03:46.913Z,92.90
2022-10-01T05:06:14.368Z,92.50
2022-10-01T05:08:41.750Z,92.00
2022-10-01T05:11:08.921Z,91.30
2022-10-01T05:13:37.128Z,91.20
2022-10-01T05:16:04.519Z,91.00
2022-10-01T05:18:34.565Z,90.90
2022-10-01T05:21:08.652Z,90.90
2022-10-01T05:23:37.887Z,90.70
2022-10-01T05:26:05.984Z,90.20
2022-10-01T05:28:34.555Z,89.80
2022-10-01T05:31:06.220Z,89.60
2022-10-01T05:33:34.657Z,89.40
2022-10-01T05:36:02.018Z,89.30
2022-10-01T05:38:29.322Z,89.00
2022-10-01T05:40:56.350Z,88.80
2022-10-01T05:43:25.635Z,88.50
2022-10-01T05:45:52.927Z,88.10
2022-10-01T05:48:20.045Z,88.00
2022-10-01T05:50:47.292Z,87.80
2022-10-01T05:53:15.363Z,87.80
2022-10-01T05:55:43.146Z,87.40
2022-10-01T05:58:12.263Z,87.10
2022-10-01T06:00:40.991Z,86.80
2022-10-01T06:03:09.254Z,86.50
2022-10-01T06:05:36.845Z,86.30
2022-10-01T06:08:09.901Z,85.90
2022-10-01T06:10:37.782Z,85.10
2022-10-01T06:13:06.421Z,84.30
2022-10-01T06:15:38.689Z,83.50
2022-10-01T06:18:08.059Z,82.60
2022-10-01T06:20:35.725Z,82.30
2022-10-01T06:23:05.983Z,81.80
2022-10-01T06:25:35.078Z,81.00
2022-10-01T06:28:03.084Z,80.10
2022-10-01T06:30:31.920Z,79.50
2022-10-01T06:33:08.476Z,78.50
2022-10-01T06:35:39.522Z,77.50
2022-10-01T06:38:06.748Z,76.60
2022-10-01T06:40:33.881Z,76.30
2022-10-01T06:43:01.015Z,74.90
2022-10-01T06:45:30.590Z,74.50
2022-10-01T06:48:02.651Z,74.40
2022-10-01T06:50:31.077Z,73.40
2022-10-01T06:52:59.019Z,73.30
2022-10-01T06:55:29.138Z,73.20
2022-10-01T06:57:58.682Z,73.40
2022-10-01T07:00:27.849Z,72.50
2022-10-01T07:02:55.881Z,71.80
2022-10-01T07:05:24.492Z,71.40
2022-10-01T07:07:52.186Z,71.40
2022-10-01T07:10:21.080Z,70.60
2022-10-01T07:12:54.027Z,71.00
2022-10-01T07:15:25.848Z,70.70
2022-10-01T07:17:53.210Z,70.60
2022-10-01T07:20:21.346Z,70.30
2022-10-01T07:22:49.950Z,70.40
2022-10-01T07:25:17.138Z,70.00
2022-10-01T07:27:44.455Z,69.70
2022-10-01T07:30:12.285Z,69.50
2022-10-01T07:32:39.494Z,68.80
2022-10-01T07:35:06.992Z,68.60
2022-10-01T07:37:34.156Z,69.00
2022-10-01T07:40:06.535Z,68.80
2022-10-01T07:42:35.710Z,68.30
2022-10-01T07:45:06.560Z,69.10
2022-10-01T07:47:33.799Z,69.50
2022-10-01T07:50:01.063Z,69.10
2022-10-01T07:52:28.348Z,68.90
2022-10-01T07:54:55.458Z,67.50
2022-10-01T07:57:22.620Z,66.70
2022-10-01T07:59:54.835Z,66.70
2022-10-01T08:02:26.011Z,66.70
2022-10-01T08:05:11.545Z,66.40
2022-10-01T08:07:38.892Z,66.70
2022-10-01T08:10:06.508Z,65.50
2022-10-01T08:12:34.557Z,64.10
2022-10-01T08:15:08.466Z,63.90
2022-10-01T08:17:35.872Z,64.10
2022-10-01T08:20:03.046Z,62.40
2022-10-01T08:22:30.195Z,62.20
2022-10-01T08:24:57.306Z,61.30
2022-10-01T08:27:26.858Z,61.30
2022-10-01T08:29:55.473Z,61.40
2022-10-01T08:32:24.969Z,60.80
2022-10-01T08:34:56.768Z,61.90
2022-10-01T08:37:28.563Z,62.60
2022-10-01T08:39:56.972Z,63.20
2022-10-01T08:42:54.182Z,63.80
2022-10-01T08:45:35.963Z,66.20
2022-10-01T08:48:31.083Z,67.00
2022-10-01T08:51:07.658Z,67.20
2022-10-01T08:53:45.463Z,68.30
2022-10-01T08:56:32.042Z,68.40
2022-10-01T08:59:04.602Z,67.30
2022-10-01T09:01:31.948Z,66.90
2022-10-01T09:03:59.870Z,66.40
2022-10-01T09:06:29.263Z,66.90
2022-10-01T09:09:25.351Z,66.40
2022-10-01T09:12:02.287Z,66.10
2022-10-01T09:14:57.181Z,65.90
2022-10-01T09:17:42.448Z,65.70
2022-10-01T09:20:27.642Z,64.80
2022-10-01T09:23:12.282Z,64.60
2022-10-01T09:25:40.508Z,63.70
2022-10-01T09:28:24.218Z,63.00
2022-10-01T09:30:57.797Z,62.80
2022-10-01T09:33:31.780Z,63.10
2022-10-01T09:36:13.970Z,63.40
2022-10-01T09:38:44.009Z,63.80
2022-10-01T09:41:12.913Z,63.60
2022-10-01T09:43:42.415Z,63.30
2022-10-01T09:46:15.190Z,63.70
2022-10-01T09:48:57.849Z,63.40
2022-10-01T09:51:46.257Z,64.50
2022-10-01T09:54:19.574Z,64.70
2022-10-01T09:56:51.339Z,65.30
2022-10-01T09:59:27.103Z,65.90
2022-10-01T10:01:59.228Z,64.70
2022-10-01T10:04:26.898Z,64.10
2022-10-01T10:07:06.062Z,63.60
2022-10-01T10:09:36.015Z,63.00
2022-10-01T10:12:03.429Z,62.50
2022-10-01T10:14:37.090Z,62.60
2022-10-01T10:17:06.852Z,63.40
2022-10-01T10:19:36.396Z,63.30
2022-10-01T10:22:23.306Z,63.30
2022-10-01T10:24:51.569Z,61.70
2022-10-01T10:27:27.626Z,60.90
2022-10-01T10:30:16.186Z,61.20
2022-10-01T10:32:44.494Z,61.10
2022-10-01T10:35:20.564Z,60.80
2022-10-01T10:37:52.291Z,61.40
2022-10-01T10:40:30.679Z,62.60
2022-10-01T10:42:59.315Z,64.50
2022-10-01T10:45:34.254Z,64.10
2022-10-01T10:48:04.755Z,64.80
2022-10-01T10:50:37.414Z,65.80
2022-10-01T10:53:22.386Z,65.40
2022-10-01T10:56:01.323Z,64.20
2022-10-01T10:58:31.784Z,63.60
2022-10-01T11:01:13.740Z,61.40
2022-10-01T11:03:56.207Z,60.30
2022-10-01T11:06:23.722Z,60.80
2022-10-01T11:09:00.763Z,60.00
2022-10-01T11:11:43.923Z,58.70
2022-10-01T11:14:29.180Z,57.90
2022-10-01T11:17:06.069Z,59.20
2022-10-01T11:19:43.986Z,58.00
2022-10-01T11:22:43.000Z,55.20
2022-10-01T11:25:28.647Z,54.20
2022-10-01T11:28:01.753Z,52.60
2022-10-01T11:30:36.942Z,54.30
2022-10-01T11:33:14.699Z,52.60
2022-10-01T11:35:55.674Z,52.30
2022-10-01T11:38:32.453Z,53.10
2022-10-01T11:41:19.280Z,54.70
2022-10-01T11:44:10.390Z,54.60
2022-10-01T11:46:56.294Z,54.20
2022-10-01T11:49:42.024Z,53.40
2022-10-01T11:52:46.333Z,53.00
2022-10-01T11:55:52.778Z,52.70
2022-10-01T11:58:57.382Z,52.30
2022-10-01T12:01:25.133Z,52.00
2022-10-01T12:03:52.238Z,51.00
2022-10-01T12:06:54.706Z,51.00
2022-10-01T12:09:30.008Z,50.70
2022-10-01T12:12:08.053Z,52.80
2022-10-01T12:15:05.726Z,53.60
2022-10-01T12:17:40.302Z,52.80
2022-10-01T12:20:37.657Z,51.80
2022-10-01T12:23:09.254Z,51.90
2022-10-01T12:25:51.734Z,52.00
2022-10-01T12:28:50.646Z,51.70
2022-10-01T12:31:42.278Z,51.80
2022-10-01T12:34:54.819Z,50.60
2022-10-01T12:37:40.504Z,49.80
2022-10-01T12:40:34.031Z,49.50
2022-10-01T12:43:04.594Z,51.60
2022-10-01T12:45:44.125Z,53.30
2022-10-01T12:48:20.133Z,53.60
2022-10-01T12:50:50.135Z,51.50
2022-10-01T12:53:43.270Z,53.00
2022-10-01T12:56:27.832Z,50.60
2022-10-01T12:59:06.305Z,51.50
2022-10-01T13:01:47.378Z,49.30
2022-10-01T13:04:38.491Z,49.30
2022-10-01T13:07:23.998Z,49.50
2022-10-01T13:09:58.807Z,47.70
2022-10-01T13:12:56.775Z,47.70
2022-10-01T13:15:28.803Z,46.20
2022-10-01T13:18:14.828Z,47.20
2022-10-01T13:20:54.154Z,44.30
2022-10-01T13:23:25.419Z,44.80
2022-10-01T13:26:22.262Z,44.20
2022-10-01T13:29:11.426Z,46.60
2022-10-01T13:31:59.385Z,48.90
2022-10-01T13:34:26.535Z,52.90
2022-10-01T13:36:53.724Z,55.30
2022-10-01T13:39:23.997Z,56.00
2022-10-01T13:41:58.856Z,57.40
2022-10-01T13:44:34.887Z,58.20
2022-10-01T13:47:09.114Z,58.60
2022-10-01T13:49:37.912Z,59.00
2022-10-01T13:52:06.178Z,60.10
2022-10-01T13:54:47.703Z,60.10
2022-10-01T13:57:31.951Z,60.40
2022-10-01T14:00:03.136Z,59.70
2022-10-01T14:02:38.635Z,59.70
2022-10-01T14:05:23.214Z,60.00
2022-10-01T14:07:56.798Z,61.30
2022-10-01T14:10:59.721Z,62.10
2022-10-01T14:13:48.174Z,63.10
2022-10-01T14:16:22.208Z,64.00
2022-10-01T14:18:57.394Z,64.80
2022-10-01T14:21:49.446Z,64.20
2022-10-01T14:24:28.910Z,63.80
2022-10-01T14:27:09.364Z,63.80
2022-10-01T14:30:03.566Z,64.30
2022-10-01T14:32:55.599Z,64.70
2022-10-01T14:35:31.499Z,65.90
2022-10-01T14:38:01.384Z,66.40
2022-10-01T14:40:38.887Z,66.90
2022-10-01T14:43:17.698Z,67.10
2022-10-01T14:45:53.322Z,68.40
2022-10-01T14:48:20.625Z,68.80
2022-10-01T14:50:51.560Z,69.10
2022-10-01T14:53:21.583Z,69.60
2022-10-01T14:55:51.072Z,70.10
2022-10-01T14:58:40.983Z,70.20
2022-10-01T15:01:14.297Z,70.30
2022-10-01T15:03:44.303Z,69.60
2022-10-01T15:06:23.728Z,70.20
2022-10-01T15:08:53.243Z,70.90
2022-10-01T15:11:24.408Z,71.40
2022-10-01T15:13:54.528Z,71.30
2022-10-01T15:16:25.012Z,71.90
2022-10-01T15:18:56.114Z,72.40
2022-10-01T15:21:34.780Z,73.00
2022-10-01T15:24:05.111Z,72.90
2022-10-01T15:26:33.167Z,73.40
2022-10-01T15:29:13.965Z,74.30
2022-10-01T15:31:41.740Z,71.50
2022-10-01T15:34:13.176Z,70.20
2022-10-01T15:36:42.253Z,60.10
2022-10-01T15:39:36.152Z,50.90
2022-10-01T15:42:09.049Z,48.60
2022-10-01T15:44:46.322Z,47.80
2022-10-01T15:47:24.347Z,47.10
2022-10-01T15:50:03.583Z,45.90
2022-10-01T15:52:53.712Z,46.30
2022-10-01T15:55:29.893Z,45.20
2022-10-01T15:58:03.762Z,44.40
2022-10-01T16:00:36.358Z,43.90
2022-10-01T16:03:03.665Z,44.20
2022-10-01T16:05:38.267Z,44.30
2022-10-01T16:08:06.023Z,45.40
2022-10-01T16:10:40.918Z,46.40
2022-10-01T16:13:30.334Z,45.60
2022-10-01T16:16:22.672Z,46.70
2022-10-01T16:18:58.704Z,46.50
2022-10-01T16:21:27.067Z,47.70
2022-10-01T16:23:56.379Z,47.70
2022-10-01T16:26:35.677Z,48.50
2022-10-01T16:29:07.543Z,48.40
2022-10-01T16:31:36.609Z,48.40
2022-10-01T16:34:11.129Z,48.50
2022-10-01T16:36:41.800Z,49.10
2022-10-01T16:39:09.100Z,49.30
2022-10-01T16:41:36.536Z,49.80
2022-10-01T16:44:07.721Z,50.30
2022-10-01T16:46:35.306Z,50.70
2022-10-01T16:49:05.901Z,51.10
2022-10-01T16:51:33.034Z,51.30
2022-10-01T16:54:01.974Z,51.70
2022-10-01T16:56:29.304Z,52.00
2022-10-01T16:58:56.363Z,52.30
2022-10-01T17:01:23.551Z,52.00
2022-10-01T17:03:51.125Z,51.80
2022-10-01T17:06:26.286Z,52.00
2022-10-01T17:09:05.456Z,52.20
2022-10-01T17:12:03.707Z,52.30
2022-10-01T17:14:33.809Z,52.60
2022-10-01T17:17:05.602Z,52.50
2022-10-01T17:19:34.999Z,53.20
2022-10-01T17:22:02.832Z,53.30
2022-10-01T17:24:33.761Z,53.70
2022-10-01T17:27:01.374Z,53.40
2022-10-01T17:29:34.645Z,53.00
2022-10-01T17:32:02.109Z,53.20
2022-10-01T17:37:17.017Z,51.40
2022-10-01T17:39:51.853Z,51.20
2022-10-01T17:42:22.381Z,51.00
2022-10-01T17:44:53.298Z,51.00
2022-10-01T17:47:26.022Z,50.90
2022-10-01T17:49:53.946Z,50.60
2022-10-01T17:52:22.683Z,51.20
2022-10-01T17:54:52.446Z,50.50
2022-10-01T17:57:27.316Z,50.40
2022-10-01T17:59:55.176Z,50.40
2022-10-01T18:02:41.442Z,50.60
2022-10-01T18:05:12.681Z,50.50
2022-10-01T18:07:40.995Z,50.70
2022-10-01T18:10:12.811Z,50.80
2022-10-01T18:12:40.482Z,51.30
2022-10-01T18:15:08.257Z,51.10
2022-10-01T18:17:36.628Z,51.40
2022-10-01T18:20:08.585Z,51.50
2022-10-01T18:22:38.103Z,51.50
2022-10-01T18:25:07.371Z,51.70
2022-10-01T18:27:34.895Z,51.50
2022-10-01T18:30:02.956Z,51.50
2022-10-01T18:32:40.821Z,51.30
2022-10-01T18:35:25.512Z,51.40
2022-10-01T18:37:56.697Z,51.70
2022-10-01T18:40:28.294Z,51.40
2022-10-01T18:43:08.925Z,51.30
2022-10-01T18:46:00.789Z,51.90
2022-10-01T18:48:55.683Z,50.80
2022-10-01T18:51:40.262Z,51.20
2022-10-01T18:54:26.233Z,51.10
2022-10-01T18:57:02.143Z,51.80
2022-10-01T18:59:51.048Z,51.90
2022-10-01T19:02:50.221Z,51.60
2022-10-01T19:05:39.772Z,51.00
2022-10-01T19:08:40.553Z,50.30
2022-10-01T19:11:37.112Z,50.10
2022-10-01T19:14:22.917Z,50.20
2022-10-01T19:17:28.368Z,50.10
2022-10-01T19:20:21.415Z,49.50
2022-10-01T19:23:01.827Z,49.20
2022-10-01T19:25:39.881Z,48.90
2022-10-01T19:28:53.331Z,48.60
2022-10-01T19:31:35.722Z,48.90
2022-10-01T19:34:28.584Z,48.80
2022-10-01T19:37:04.445Z,48.70
2022-10-01T19:39:41.606Z,48.60
2022-10-01T19:42:22.004Z,48.50
2022-10-01T19:45:04.759Z,48.80
2022-10-01T19:47:40.031Z,48.70
2022-10-01T19:50:21.361Z,48.70
2022-10-01T19:52:51.789Z,48.30
2022-10-01T19:55:22.534Z,48.40
2022-10-01T19:57:50.392Z,48.00
2022-10-01T20:00:23.835Z,48.30
2022-10-01T20:03:04.247Z,48.80
2022-10-01T20:05:39.979Z,48.30
2022-10-01T20:08:25.254Z,48.40
2022-10-01T20:10:57.551Z,48.10
2022-10-01T20:13:36.406Z,47.50
2022-10-01T20:16:18.417Z,47.70
2022-10-01T20:18:57.933Z,47.10
2022-10-01T20:21:32.191Z,47.30
2022-10-01T20:24:08.586Z,47.10
2022-10-01T20:26:52.778Z,47.40
2022-10-01T20:29:47.647Z,47.90
2022-10-01T20:32:38.173Z,48.30
2022-10-01T20:35:20.947Z,49.10
2022-10-01T20:38:11.667Z,49.70
2022-10-01T20:40:43.197Z,49.60
2022-10-01T20:43:33.623Z,49.80
2022-10-01T20:46:10.714Z,50.10
2022-10-01T20:48:43.692Z,50.50
2022-10-01T20:51:30.762Z,50.80
2022-10-01T20:54:06.975Z,51.60
2022-10-01T20:56:46.499Z,52.70
2022-10-01T20:59:27.556Z,54.50
2022-10-01T21:02:24.577Z,56.60
2022-10-01T21:04:59.292Z,58.00
2022-10-01T21:07:50.313Z,59.30
2022-10-01T21:10:22.158Z,59.60
2022-10-01T21:13:00.071Z,59.50
2022-10-01T21:15:36.883Z,59.10
2022-10-01T21:18:16.279Z,58.80
2022-10-01T21:20:59.598Z,58.70
2022-10-01T21:23:39.913Z,58.60
2022-10-01T21:26:54.148Z,58.30
2022-10-01T21:30:00.295Z,57.80
2022-10-01T21:32:49.273Z,58.50
2022-10-01T21:35:39.774Z,58.40
2022-10-01T21:38:12.123Z,58.70
2022-10-01T21:40:52.511Z,58.70
2022-10-01T21:43:28.948Z,58.80
2022-10-01T21:46:21.024Z,58.70
2022-10-01T21:48:50.992Z,58.20
2022-10-01T21:51:30.351Z,58.10
2022-10-01T21:54:36.585Z,58.10
2022-10-01T21:57:49.119Z,58.50
2022-10-01T22:00:20.670Z,58.40
2022-10-01T22:02:58.620Z,58.40
2022-10-01T22:05:41.037Z,58.20
2022-10-01T22:08:45.903Z,58.20
2022-10-01T22:11:18.649Z,58.30
2022-10-01T22:13:57.059Z,58.00
2022-10-01T22:16:28.636Z,58.00
2022-10-01T22:18:57.899Z,58.20
2022-10-01T22:21:37.168Z,58.20
2022-10-01T22:24:28.948Z,58.60
2022-10-01T22:27:07.403Z,59.00
2022-10-01T22:29:43.763Z,59.60
2022-10-01T22:32:13.894Z,60.40
2022-10-01T22:35:01.069Z,61.60
2022-10-01T22:37:52.043Z,62.30
2022-10-01T22:40:27.551Z,63.20
2022-10-01T22:43:12.890Z,63.70
2022-10-01T22:45:57.903Z,63.80
2022-10-01T22:48:34.710Z,63.70
2022-10-01T22:51:11.578Z,64.00
2022-10-01T22:54:18.036Z,64.30
2022-10-01T22:56:59.027Z,64.50
2022-10-01T22:59:44.093Z,64.50
2022-10-01T23:02:39.842Z,64.60
2022-10-01T23:05:10.117Z,64.90
2022-10-01T23:07:46.291Z,65.40
2022-10-01T23:10:35.355Z,65.60
2022-10-01T23:13:34.981Z,65.70
2022-10-01T23:16:13.655Z,65.90
2022-10-01T23:18:57.683Z,65.90
2022-10-01T23:22:20.671Z,66.30
2022-10-01T23:25:05.586Z,65.80
2022-10-01T23:27:48.672Z,65.90
2022-10-01T23:30:18.246Z,66.10
2022-10-01T23:33:09.709Z,66.30
2022-10-01T23:36:22.233Z,65.60
2022-10-01T23:38:52.252Z,65.80
2022-10-01T23:41:25.763Z,65.30
2022-10-01T23:43:56.753Z,65.20
2022-10-01T23:46:27.542Z,65.00
2022-10-01T23:48:57.865Z,64.80
2022-10-01T23:51:27.723Z,64.80
2022-10-01T23:54:34.996Z,64.90
2022-10-01T23:57:29.705Z,64.90
